createdAt,value
2023-03-26T00:04:28.068Z,59.97
2023-03-26T00:09:48.971Z,59.89
2023-03-26T00:15:10.541Z,59.86
2023-03-26T00:20:34.687Z,59.84
2023-03-26T00:25:56.791Z,60.14
2023-03-26T00:31:18.160Z,59.78
2023-03-26T00:36:39.060Z,59.44
2023-03-26T00:41:59.679Z,59.94
2023-03-26T00:47:21.324Z,59.64
2023-03-26T00:52:45.051Z,60.06
2023-03-26T00:58:06.330Z,59.98
2023-03-26T01:03:33.826Z,59.85
2023-03-26T01:09:00.416Z,60.20
2023-03-26T01:14:25.068Z,60.13
2023-03-26T01:20:13.246Z,60.00
2023-03-26T01:25:43.292Z,59.99
2023-03-26T01:31:14.161Z,60.19
2023-03-26T01:36:44.670Z,60.14
2023-03-26T01:42:21.613Z,60.08
2023-03-26T01:47:44.034Z,60.13
2023-03-26T01:53:06.161Z,60.21
2023-03-26T01:58:41.710Z,60.42
2023-03-26T02:04:11.572Z,60.26
2023-03-26T02:09:39.293Z,60.54
2023-03-26T02:15:01.895Z,60.54
2023-03-26T02:20:22.986Z,60.54
2023-03-26T02:25:43.922Z,60.71
2023-03-26T02:31:05.643Z,60.53
2023-03-26T02:36:30.296Z,60.59
2023-03-26T02:41:54.666Z,60.82
2023-03-26T02:47:15.908Z,60.67
2023-03-26T02:52:49.092Z,60.61
2023-03-26T02:58:12.308Z,60.93
2023-03-26T03:03:34.602Z,60.93
2023-03-26T03:09:19.056Z,60.76
2023-03-26T03:14:58.546Z,60.84
2023-03-26T03:20:19.437Z,61.00
2023-03-26T03:25:41.711Z,60.91
2023-03-26T03:31:03.631Z,60.93
2023-03-26T03:36:28.004Z,60.92
2023-03-26T03:41:59.020Z,61.32
2023-03-26T03:47:20.438Z,61.08
2023-03-26T03:52:41.804Z,61.21
2023-03-26T03:58:03.853Z,61.38
2023-03-26T04:03:33.930Z,61.43
2023-03-26T04:08:58.455Z,61.20
2023-03-26T04:14:20.124Z,61.10
2023-03-26T04:20:14.929Z,61.15
2023-03-26T04:25:39.466Z,61.19
2023-03-26T04:31:29.136Z,61.37
2023-03-26T04:36:54.679Z,61.45
2023-03-26T04:42:20.088Z,61.20
2023-03-26T04:48:02.391Z,61.26
2023-03-26T04:53:24.266Z,61.42
2023-03-26T04:59:25.999Z,61.67
2023-03-26T05:04:50.036Z,61.24
2023-03-26T05:10:15.345Z,61.46
2023-03-26T05:16:05.947Z,61.72
2023-03-26T05:21:42.462Z,61.57
2023-03-26T05:27:03.531Z,61.41
2023-03-26T05:32:36.570Z,61.84
2023-03-26T05:37:58.242Z,61.51
2023-03-26T05:43:19.886Z,61.33
2023-03-26T05:48:48.053Z,61.52
2023-03-26T05:54:09.208Z,61.17
2023-03-26T05:59:48.504Z,61.42
2023-03-26T06:05:43.062Z,61.45
2023-03-26T06:11:12.619Z,61.80
2023-03-26T06:16:33.833Z,61.72
2023-03-26T06:22:14.581Z,61.43
2023-03-26T06:27:54.469Z,61.49
2023-03-26T06:33:48.797Z,61.23
2023-03-26T06:39:10.216Z,61.42
2023-03-26T06:44:37.614Z,61.25
2023-03-26T06:50:17.023Z,60.83
2023-03-26T06:55:49.969Z,60.96
2023-03-26T07:01:16.937Z,60.93
2023-03-26T07:06:56.581Z,61.11
2023-03-26T07:12:36.244Z,60.83
2023-03-26T07:18:17.375Z,61.10
2023-03-26T07:23:39.963Z,60.72
2023-03-26T07:29:45.403Z,61.04
2023-03-26T07:35:49.104Z,60.94
2023-03-26T07:41:50.494Z,61.09
2023-03-26T07:47:33.849Z,61.06
2023-03-26T07:53:17.087Z,61.38
2023-03-26T07:59:22.396Z,61.24
2023-03-26T08:05:20.127Z,61.16
2023-03-26T08:11:40.927Z,61.02
2023-03-26T08:17:40.628Z,60.33
2023-03-26T08:23:12.075Z,60.39
2023-03-26T08:28:46.008Z,60.13
2023-03-26T08:34:11.496Z,59.87
2023-03-26T08:39:32.244Z,59.85
2023-03-26T08:45:30.367Z,59.45
2023-03-26T08:51:05.240Z,59.07
2023-03-26T08:56:49.428Z,58.88
2023-03-26T09:02:53.387Z,58.80
2023-03-26T09:08:14.135Z,58.91
2023-03-26T09:13:53.314Z,58.62
2023-03-26T09:19:44.451Z,58.19
2023-03-26T09:25:41.615Z,57.66
2023-03-26T09:31:36.450Z,57.92
2023-03-26T09:37:14.342Z,57.20
2023-03-26T09:42:53.705Z,56.74
2023-03-26T09:48:54.193Z,56.48
2023-03-26T09:54:30.844Z,56.76
2023-03-26T10:00:16.654Z,56.37
2023-03-26T10:05:52.747Z,55.91
2023-03-26T10:11:27.000Z,55.78
2023-03-26T10:17:33.831Z,55.95
2023-03-26T10:23:12.967Z,56.03
2023-03-26T10:28:52.724Z,55.65
2023-03-26T10:34:35.118Z,55.63
2023-03-26T10:40:28.509Z,55.82
2023-03-26T10:46:22.884Z,55.85
2023-03-26T10:51:56.040Z,55.69
2023-03-26T10:57:34.694Z,55.63
2023-03-26T11:03:20.388Z,55.20
2023-03-26T11:08:52.827Z,55.11
2023-03-26T11:14:42.602Z,54.92
2023-03-26T11:20:07.606Z,54.97
2023-03-26T11:25:43.490Z,55.37
2023-03-26T11:31:13.398Z,55.35
2023-03-26T11:36:41.313Z,54.39
2023-03-26T11:42:12.679Z,54.53
2023-03-26T11:47:44.957Z,54.46
2023-03-26T11:53:18.016Z,54.40
2023-03-26T11:58:50.265Z,54.13
2023-03-26T12:04:14.629Z,54.05
2023-03-26T12:09:35.524Z,54.01
2023-03-26T12:14:56.346Z,54.15
2023-03-26T12:20:26.231Z,53.99
2023-03-26T12:26:05.663Z,54.00
2023-03-26T12:31:26.658Z,53.94
2023-03-26T12:36:56.601Z,54.02
2023-03-26T12:44:44.082Z,53.56
2023-03-26T12:48:09.967Z,54.39
2023-03-26T12:53:57.836Z,54.57
2023-03-26T12:59:24.363Z,54.38
2023-03-26T13:05:06.062Z,54.35
2023-03-26T13:11:12.628Z,54.29
2023-03-26T13:16:45.193Z,54.90
2023-03-26T13:22:24.837Z,55.30
2023-03-26T13:27:56.008Z,55.36
2023-03-26T13:33:45.042Z,55.50
2023-03-26T13:39:37.771Z,55.92
2023-03-26T13:45:05.701Z,56.65
2023-03-26T13:50:35.617Z,57.05
2023-03-26T13:55:59.685Z,57.08
2023-03-26T14:01:46.097Z,57.47
2023-03-26T14:07:29.030Z,57.51
2023-03-26T14:12:57.577Z,57.91
2023-03-26T14:18:44.262Z,58.24
2023-03-26T14:24:34.716Z,58.61
2023-03-26T14:30:23.253Z,58.44
2023-03-26T14:36:02.719Z,59.45
2023-03-26T14:41:27.904Z,60.05
2023-03-26T14:46:48.848Z,59.82
2023-03-26T14:52:31.266Z,59.62
2023-03-26T14:58:16.522Z,60.11
2023-03-26T15:03:59.182Z,60.18
2023-03-26T15:09:46.326Z,60.55
2023-03-26T15:15:28.706Z,60.88
2023-03-26T15:21:20.206Z,61.49
2023-03-26T15:26:47.226Z,61.01
2023-03-26T15:32:30.305Z,61.47
2023-03-26T15:38:06.168Z,61.88
2023-03-26T15:44:05.065Z,62.12
2023-03-26T15:49:42.747Z,62.48
2023-03-26T15:55:21.494Z,62.70
2023-03-26T16:00:56.126Z,63.42
2023-03-26T16:06:46.574Z,63.08
2023-03-26T16:12:16.436Z,62.94
2023-03-26T16:18:19.518Z,62.81
2023-03-26T16:23:47.763Z,63.52
2023-03-26T16:29:18.362Z,63.92
2023-03-26T16:34:57.333Z,63.67
2023-03-26T16:40:18.212Z,63.83
2023-03-26T16:45:58.104Z,63.67
2023-03-26T16:51:49.392Z,63.89
2023-03-26T16:57:24.682Z,63.94
2023-03-26T17:03:17.896Z,64.10
2023-03-26T17:08:39.145Z,63.75
2023-03-26T17:14:14.159Z,64.65
2023-03-26T17:19:41.965Z,64.99
2023-03-26T17:25:21.637Z,64.09
2023-03-26T17:31:23.807Z,64.33
2023-03-26T17:36:46.016Z,64.32
2023-03-26T17:42:16.133Z,64.49
2023-03-26T17:48:15.555Z,66.16
2023-03-26T17:53:37.844Z,65.26
2023-03-26T17:59:11.526Z,64.50
2023-03-26T18:04:39.418Z,64.10
2023-03-26T18:10:34.572Z,64.52
2023-03-26T18:16:01.470Z,63.81
2023-03-26T18:21:28.607Z,64.04
2023-03-26T18:26:55.445Z,64.05
2023-03-26T18:32:22.290Z,63.97
2023-03-26T18:37:46.022Z,63.39
2023-03-26T18:43:28.579Z,63.20
2023-03-26T18:48:55.735Z,63.12
2023-03-26T18:54:19.633Z,62.87
2023-03-26T18:59:45.242Z,63.10
2023-03-26T19:05:07.564Z,63.36
2023-03-26T19:10:28.954Z,63.12
2023-03-26T19:15:52.150Z,62.79
2023-03-26T19:21:14.732Z,62.83
2023-03-26T19:26:36.744Z,62.75
2023-03-26T19:32:20.649Z,63.37
2023-03-26T19:37:55.370Z,62.43
2023-03-26T19:43:17.423Z,62.18
2023-03-26T19:48:45.760Z,62.15
2023-03-26T19:54:16.426Z,62.58
2023-03-26T19:59:37.087Z,62.26
2023-03-26T20:04:57.951Z,61.96
2023-03-26T20:10:18.960Z,62.41
2023-03-26T20:15:40.941Z,62.04
2023-03-26T20:21:02.367Z,62.42
2023-03-26T20:26:24.260Z,62.42
2023-03-26T20:31:46.078Z,62.62
2023-03-26T20:37:07.127Z,62.32
2023-03-26T20:42:28.048Z,62.25
2023-03-26T20:47:50.586Z,62.44
2023-03-26T20:53:16.513Z,62.01
2023-03-26T20:58:39.175Z,62.67
2023-03-26T21:04:00.168Z,62.82
2023-03-26T21:09:25.257Z,63.08
2023-03-26T21:14:46.725Z,62.96
2023-03-26T21:20:13.489Z,63.01
2023-03-26T21:25:54.092Z,63.32
2023-03-26T21:31:20.248Z,63.65
2023-03-26T21:36:42.037Z,63.13
2023-03-26T21:42:04.720Z,63.53
2023-03-26T21:47:27.074Z,63.14
2023-03-26T21:52:51.016Z,63.63
2023-03-26T21:58:52.475Z,63.68
2023-03-26T22:04:34.808Z,63.78
2023-03-26T22:09:55.856Z,63.74
2023-03-26T22:15:18.474Z,63.90
2023-03-26T22:20:39.553Z,63.98
2023-03-26T22:26:00.469Z,64.13
2023-03-26T22:31:21.326Z,64.13
2023-03-26T22:36:42.117Z,64.14
2023-03-26T22:42:03.859Z,64.14
2023-03-26T22:47:25.010Z,63.97
2023-03-26T22:52:46.260Z,64.18
2023-03-26T22:58:06.916Z,64.04
2023-03-26T23:03:35.108Z,63.72
2023-03-26T23:08:57.079Z,63.69
2023-03-26T23:14:19.121Z,63.43
2023-03-26T23:19:40.076Z,63.94
2023-03-26T23:25:00.980Z,64.00
2023-03-26T23:30:21.743Z,64.38
2023-03-26T23:35:44.241Z,64.56
2023-03-26T23:41:06.171Z,64.47
2023-03-26T23:46:34.802Z,65.19
2023-03-26T23:51:55.738Z,65.41
2023-03-26T23:57:18.469Z,65.59
